sensor_id;sensor_type;location;lat;lon;timestamp;P1;durP1;ratioP1;P2;durP2;ratioP2
22634;SDS011;11484;50.858;4.384;2023-02-12T00:00:36;15.30;;;11.00;;
22634;SDS011;11484;50.858;4.384;2023-02-12T00:03:03;14.52;;;10.65;;
22634;SDS011;11484;50.858;4.384;2023-02-12T00:05:32;14.85;;;11.13;;
22634;SDS011;11484;50.858;4.384;2023-02-12T00:07:58;13.32;;;10.32;;
22634;SDS011;11484;50.858;4.384;2023-02-12T00:10:24;13.55;;;9.65;;
22634;SDS011;11484;50.858;4.384;2023-02-12T00:12:52;10.80;;;9.20;;
22634;SDS011;11484;50.858;4.384;2023-02-12T00:15:19;12.23;;;10.05;;
22634;SDS011;11484;50.858;4.384;2023-02-12T00:17:45;14.57;;;10.38;;
22634;SDS011;11484;50.858;4.384;2023-02-12T00:20:11;15.32;;;9.93;;
22634;SDS011;11484;50.858;4.384;2023-02-12T00:22:37;15.95;;;10.95;;
22634;SDS011;11484;50.858;4.384;2023-02-12T00:25:03;17.27;;;11.55;;
22634;SDS011;11484;50.858;4.384;2023-02-12T00:27:31;16.27;;;11.93;;
22634;SDS011;11484;50.858;4.384;2023-02-12T00:29:58;16.17;;;11.93;;
22634;SDS011;11484;50.858;4.384;2023-02-12T00:32:23;17.50;;;12.20;;
22634;SDS011;11484;50.858;4.384;2023-02-12T00:34:49;17.35;;;13.27;;
22634;SDS011;11484;50.858;4.384;2023-02-12T00:37:15;17.55;;;13.82;;
22634;SDS011;11484;50.858;4.384;2023-02-12T00:39:41;16.23;;;12.93;;
22634;SDS011;11484;50.858;4.384;2023-02-12T00:42:07;14.35;;;12.25;;
22634;SDS011;11484;50.858;4.384;2023-02-12T00:44:33;18.95;;;13.43;;
22634;SDS011;11484;50.858;4.384;2023-02-12T00:46:58;16.90;;;12.10;;
22634;SDS011;11484;50.858;4.384;2023-02-12T00:49:27;13.20;;;11.23;;
22634;SDS011;11484;50.858;4.384;2023-02-12T00:51:54;13.45;;;10.93;;
22634;SDS011;11484;50.858;4.384;2023-02-12T00:54:19;13.45;;;12.05;;
22634;SDS011;11484;50.858;4.384;2023-02-12T00:56:45;17.00;;;12.15;;
22634;SDS011;11484;50.858;4.384;2023-02-12T00:59:10;14.05;;;11.48;;
22634;SDS011;11484;50.858;4.384;2023-02-12T01:01:36;15.60;;;12.60;;
22634;SDS011;11484;50.858;4.384;2023-02-12T01:04:02;15.50;;;13.10;;
22634;SDS011;11484;50.858;4.384;2023-02-12T01:06:28;15.30;;;12.32;;
22634;SDS011;11484;50.858;4.384;2023-02-12T01:08:53;18.83;;;14.57;;
22634;SDS011;11484;50.858;4.384;2023-02-12T01:11:19;18.90;;;15.60;;
22634;SDS011;11484;50.858;4.384;2023-02-12T01:13:45;16.83;;;15.07;;
22634;SDS011;11484;50.858;4.384;2023-02-12T01:16:18;25.02;;;16.63;;
22634;SDS011;11484;50.858;4.384;2023-02-12T01:18:45;34.45;;;15.13;;
22634;SDS011;11484;50.858;4.384;2023-02-12T01:21:22;13.43;;;12.00;;
22634;SDS011;11484;50.858;4.384;2023-02-12T01:23:50;12.65;;;11.32;;
22634;SDS011;11484;50.858;4.384;2023-02-12T01:26:16;14.35;;;12.77;;
22634;SDS011;11484;50.858;4.384;2023-02-12T01:28:44;18.65;;;14.63;;
22634;SDS011;11484;50.858;4.384;2023-02-12T01:31:14;19.70;;;15.83;;
22634;SDS011;11484;50.858;4.384;2023-02-12T01:33:41;18.30;;;16.17;;
22634;SDS011;11484;50.858;4.384;2023-02-12T01:36:07;20.35;;;16.63;;
22634;SDS011;11484;50.858;4.384;2023-02-12T01:38:34;19.88;;;15.45;;
22634;SDS011;11484;50.858;4.384;2023-02-12T01:41:01;19.10;;;13.98;;
22634;SDS011;11484;50.858;4.384;2023-02-12T01:43:32;20.27;;;15.57;;
22634;SDS011;11484;50.858;4.384;2023-02-12T01:45:59;18.02;;;15.15;;
22634;SDS011;11484;50.858;4.384;2023-02-12T01:48:26;23.00;;;16.48;;
22634;SDS011;11484;50.858;4.384;2023-02-12T01:50:54;24.87;;;17.07;;
22634;SDS011;11484;50.858;4.384;2023-02-12T01:53:22;20.40;;;16.13;;
22634;SDS011;11484;50.858;4.384;2023-02-12T01:55:56;18.88;;;16.83;;
22634;SDS011;11484;50.858;4.384;2023-02-12T01:58:25;20.35;;;17.58;;
22634;SDS011;11484;50.858;4.384;2023-02-12T02:00:52;21.90;;;18.02;;
22634;SDS011;11484;50.858;4.384;2023-02-12T02:03:18;25.67;;;18.63;;
22634;SDS011;11484;50.858;4.384;2023-02-12T02:08:13;26.88;;;19.08;;
22634;SDS011;11484;50.858;4.384;2023-02-12T02:10:40;23.27;;;18.85;;
22634;SDS011;11484;50.858;4.384;2023-02-12T02:13:06;22.95;;;19.67;;
22634;SDS011;11484;50.858;4.384;2023-02-12T02:15:51;21.50;;;17.90;;
22634;SDS011;11484;50.858;4.384;2023-02-12T02:18:42;23.40;;;18.88;;
22634;SDS011;11484;50.858;4.384;2023-02-12T02:32:49;23.38;;;18.60;;
22634;SDS011;11484;50.858;4.384;2023-02-12T02:38:23;24.33;;;19.25;;
22634;SDS011;11484;50.858;4.384;2023-02-12T02:43:43;28.25;;;20.55;;
22634;SDS011;11484;50.858;4.384;2023-02-12T02:46:28;27.95;;;21.05;;
22634;SDS011;11484;50.858;4.384;2023-02-12T02:49:05;27.27;;;21.35;;
22634;SDS011;11484;50.858;4.384;2023-02-12T02:51:36;25.42;;;19.92;;
22634;SDS011;11484;50.858;4.384;2023-02-12T02:54:10;27.60;;;20.35;;
22634;SDS011;11484;50.858;4.384;2023-02-12T02:56:44;31.35;;;21.90;;
22634;SDS011;11484;50.858;4.384;2023-02-12T02:59:15;28.90;;;21.25;;
22634;SDS011;11484;50.858;4.384;2023-02-12T03:01:46;25.10;;;19.77;;
22634;SDS011;11484;50.858;4.384;2023-02-12T03:04:35;22.23;;;17.07;;
22634;SDS011;11484;50.858;4.384;2023-02-12T03:07:10;23.25;;;18.63;;
22634;SDS011;11484;50.858;4.384;2023-02-12T03:09:51;27.00;;;20.38;;
22634;SDS011;11484;50.858;4.384;2023-02-12T03:12:22;27.40;;;20.30;;
22634;SDS011;11484;50.858;4.384;2023-02-12T03:15:06;28.77;;;21.55;;
22634;SDS011;11484;50.858;4.384;2023-02-12T03:17:39;30.17;;;22.35;;
22634;SDS011;11484;50.858;4.384;2023-02-12T03:20:15;29.30;;;21.63;;
22634;SDS011;11484;50.858;4.384;2023-02-12T03:22:55;28.65;;;22.17;;
22634;SDS011;11484;50.858;4.384;2023-02-12T03:25:33;27.77;;;21.17;;
22634;SDS011;11484;50.858;4.384;2023-02-12T03:28:07;27.00;;;20.30;;
22634;SDS011;11484;50.858;4.384;2023-02-12T03:30:41;27.58;;;21.50;;
22634;SDS011;11484;50.858;4.384;2023-02-12T03:33:34;30.67;;;22.73;;
22634;SDS011;11484;50.858;4.384;2023-02-12T03:36:09;25.05;;;19.95;;
22634;SDS011;11484;50.858;4.384;2023-02-12T03:38:47;27.90;;;20.40;;
22634;SDS011;11484;50.858;4.384;2023-02-12T03:43:52;19.77;;;16.60;;
22634;SDS011;11484;50.858;4.384;2023-02-12T03:51:46;19.38;;;14.48;;
22634;SDS011;11484;50.858;4.384;2023-02-12T03:54:12;26.02;;;18.20;;
22634;SDS011;11484;50.858;4.384;2023-02-12T03:56:47;24.63;;;17.77;;
22634;SDS011;11484;50.858;4.384;2023-02-12T03:59:27;24.75;;;19.05;;
22634;SDS011;11484;50.858;4.384;2023-02-12T04:01:54;25.08;;;19.25;;
22634;SDS011;11484;50.858;4.384;2023-02-12T04:04:22;28.52;;;18.92;;
22634;SDS011;11484;50.858;4.384;2023-02-12T04:06:49;26.20;;;19.88;;
22634;SDS011;11484;50.858;4.384;2023-02-12T04:09:16;26.08;;;19.92;;
22634;SDS011;11484;50.858;4.384;2023-02-12T04:20:25;27.40;;;20.00;;
22634;SDS011;11484;50.858;4.384;2023-02-12T04:26:01;30.92;;;21.08;;
22634;SDS011;11484;50.858;4.384;2023-02-12T04:31:32;28.30;;;20.35;;
22634;SDS011;11484;50.858;4.384;2023-02-12T04:37:00;30.33;;;21.15;;
22634;SDS011;11484;50.858;4.384;2023-02-12T04:39:26;29.88;;;21.00;;
22634;SDS011;11484;50.858;4.384;2023-02-12T04:41:57;28.60;;;20.40;;
22634;SDS011;11484;50.858;4.384;2023-02-12T04:44:25;29.77;;;22.08;;
22634;SDS011;11484;50.858;4.384;2023-02-12T04:46:52;35.50;;;21.55;;
22634;SDS011;11484;50.858;4.384;2023-02-12T04:49:19;20.92;;;15.65;;
22634;SDS011;11484;50.858;4.384;2023-02-12T04:51:46;23.77;;;16.25;;
22634;SDS011;11484;50.858;4.384;2023-02-12T04:54:13;24.02;;;18.60;;
22634;SDS011;11484;50.858;4.384;2023-02-12T04:56:39;28.73;;;20.63;;
22634;SDS011;11484;50.858;4.384;2023-02-12T04:59:06;30.75;;;21.50;;
22634;SDS011;11484;50.858;4.384;2023-02-12T05:01:36;33.65;;;23.65;;
22634;SDS011;11484;50.858;4.384;2023-02-12T05:04:03;33.75;;;22.17;;
22634;SDS011;11484;50.858;4.384;2023-02-12T05:06:30;34.42;;;23.88;;
22634;SDS011;11484;50.858;4.384;2023-02-12T05:08:58;34.78;;;23.90;;
22634;SDS011;11484;50.858;4.384;2023-02-12T05:11:24;32.60;;;22.83;;
22634;SDS011;11484;50.858;4.384;2023-02-12T05:13:50;31.25;;;22.88;;
22634;SDS011;11484;50.858;4.384;2023-02-12T05:16:16;29.55;;;21.80;;
22634;SDS011;11484;50.858;4.384;2023-02-12T05:18:43;35.60;;;22.98;;
22634;SDS011;11484;50.858;4.384;2023-02-12T05:21:08;32.63;;;22.83;;
22634;SDS011;11484;50.858;4.384;2023-02-12T05:23:35;35.92;;;24.30;;
22634;SDS011;11484;50.858;4.384;2023-02-12T05:26:04;33.15;;;23.88;;
22634;SDS011;11484;50.858;4.384;2023-02-12T05:28:31;30.73;;;22.65;;
22634;SDS011;11484;50.858;4.384;2023-02-12T05:31:01;34.13;;;23.17;;
22634;SDS011;11484;50.858;4.384;2023-02-12T05:35:53;31.67;;;22.70;;
22634;SDS011;11484;50.858;4.384;2023-02-12T05:38:19;30.90;;;23.05;;
22634;SDS011;11484;50.858;4.384;2023-02-12T05:40:45;30.98;;;22.98;;
22634;SDS011;11484;50.858;4.384;2023-02-12T05:43:11;40.78;;;25.30;;
22634;SDS011;11484;50.858;4.384;2023-02-12T05:45:37;35.90;;;25.42;;
22634;SDS011;11484;50.858;4.384;2023-02-12T05:48:05;32.30;;;24.08;;
22634;SDS011;11484;50.858;4.384;2023-02-12T05:50:31;36.20;;;24.42;;
22634;SDS011;11484;50.858;4.384;2023-02-12T05:53:00;35.05;;;24.15;;
22634;SDS011;11484;50.858;4.384;2023-02-12T05:55:26;35.10;;;25.02;;
22634;SDS011;11484;50.858;4.384;2023-02-12T05:57:52;35.17;;;24.90;;
22634;SDS011;11484;50.858;4.384;2023-02-12T06:00:18;36.15;;;25.60;;
22634;SDS011;11484;50.858;4.384;2023-02-12T06:02:44;38.10;;;24.17;;
22634;SDS011;11484;50.858;4.384;2023-02-12T06:05:10;35.88;;;25.00;;
22634;SDS011;11484;50.858;4.384;2023-02-12T06:07:35;33.78;;;24.45;;
22634;SDS011;11484;50.858;4.384;2023-02-12T06:10:02;32.10;;;23.35;;
22634;SDS011;11484;50.858;4.384;2023-02-12T06:12:27;35.85;;;24.95;;
22634;SDS011;11484;50.858;4.384;2023-02-12T06:14:53;33.33;;;24.10;;
22634;SDS011;11484;50.858;4.384;2023-02-12T06:17:19;36.58;;;25.60;;
22634;SDS011;11484;50.858;4.384;2023-02-12T06:19:44;36.17;;;25.35;;
22634;SDS011;11484;50.858;4.384;2023-02-12T06:22:10;34.55;;;24.17;;
22634;SDS011;11484;50.858;4.384;2023-02-12T06:24:36;35.33;;;24.58;;
22634;SDS011;11484;50.858;4.384;2023-02-12T06:27:02;32.88;;;24.30;;
22634;SDS011;11484;50.858;4.384;2023-02-12T06:29:27;37.65;;;25.50;;
22634;SDS011;11484;50.858;4.384;2023-02-12T06:31:53;34.00;;;23.83;;
22634;SDS011;11484;50.858;4.384;2023-02-12T06:34:19;36.65;;;25.73;;
22634;SDS011;11484;50.858;4.384;2023-02-12T06:36:45;39.97;;;26.33;;
22634;SDS011;11484;50.858;4.384;2023-02-12T06:39:12;37.10;;;25.80;;
22634;SDS011;11484;50.858;4.384;2023-02-12T06:41:39;37.58;;;25.33;;
22634;SDS011;11484;50.858;4.384;2023-02-12T06:44:06;35.67;;;24.75;;
22634;SDS011;11484;50.858;4.384;2023-02-12T06:46:32;39.83;;;24.83;;
22634;SDS011;11484;50.858;4.384;2023-02-12T06:48:58;40.47;;;25.02;;
22634;SDS011;11484;50.858;4.384;2023-02-12T06:51:24;40.05;;;26.60;;
22634;SDS011;11484;50.858;4.384;2023-02-12T06:53:52;34.38;;;24.88;;
22634;SDS011;11484;50.858;4.384;2023-02-12T06:56:19;34.78;;;25.17;;
22634;SDS011;11484;50.858;4.384;2023-02-12T06:58:50;35.75;;;25.10;;
22634;SDS011;11484;50.858;4.384;2023-02-12T07:01:22;38.70;;;25.77;;
22634;SDS011;11484;50.858;4.384;2023-02-12T07:03:51;39.30;;;26.35;;
22634;SDS011;11484;50.858;4.384;2023-02-12T07:06:19;40.03;;;26.40;;
22634;SDS011;11484;50.858;4.384;2023-02-12T07:08:45;39.25;;;25.23;;
22634;SDS011;11484;50.858;4.384;2023-02-12T07:11:11;42.50;;;26.73;;
22634;SDS011;11484;50.858;4.384;2023-02-12T07:13:39;41.88;;;25.73;;
22634;SDS011;11484;50.858;4.384;2023-02-12T07:16:06;41.53;;;26.40;;
22634;SDS011;11484;50.858;4.384;2023-02-12T07:18:34;34.80;;;23.10;;
22634;SDS011;11484;50.858;4.384;2023-02-12T07:20:59;35.20;;;23.70;;
22634;SDS011;11484;50.858;4.384;2023-02-12T07:23:25;35.20;;;23.35;;
22634;SDS011;11484;50.858;4.384;2023-02-12T07:25:55;35.97;;;24.17;;
22634;SDS011;11484;50.858;4.384;2023-02-12T07:28:25;36.10;;;24.45;;
22634;SDS011;11484;50.858;4.384;2023-02-12T07:30:51;34.47;;;24.33;;
22634;SDS011;11484;50.858;4.384;2023-02-12T07:33:17;32.22;;;22.90;;
22634;SDS011;11484;50.858;4.384;2023-02-12T07:35:43;30.92;;;22.77;;
22634;SDS011;11484;50.858;4.384;2023-02-12T07:38:10;38.58;;;25.70;;
22634;SDS011;11484;50.858;4.384;2023-02-12T07:40:36;38.72;;;25.15;;
22634;SDS011;11484;50.858;4.384;2023-02-12T07:43:02;36.08;;;24.52;;
22634;SDS011;11484;50.858;4.384;2023-02-12T07:45:29;37.65;;;24.90;;
22634;SDS011;11484;50.858;4.384;2023-02-12T07:47:55;39.80;;;25.48;;
22634;SDS011;11484;50.858;4.384;2023-02-12T07:50:21;40.10;;;25.08;;
22634;SDS011;11484;50.858;4.384;2023-02-12T07:52:48;31.00;;;22.67;;
22634;SDS011;11484;50.858;4.384;2023-02-12T07:55:15;34.90;;;23.88;;
22634;SDS011;11484;50.858;4.384;2023-02-12T07:57:42;36.42;;;24.90;;
22634;SDS011;11484;50.858;4.384;2023-02-12T08:00:08;37.45;;;24.77;;
22634;SDS011;11484;50.858;4.384;2023-02-12T08:02:34;34.90;;;23.30;;
22634;SDS011;11484;50.858;4.384;2023-02-12T08:05:00;37.22;;;24.63;;
22634;SDS011;11484;50.858;4.384;2023-02-12T08:07:25;34.63;;;24.70;;
22634;SDS011;11484;50.858;4.384;2023-02-12T08:09:51;34.92;;;23.70;;
22634;SDS011;11484;50.858;4.384;2023-02-12T08:12:17;42.50;;;25.23;;
22634;SDS011;11484;50.858;4.384;2023-02-12T08:14:43;51.63;;;32.40;;
22634;SDS011;11484;50.858;4.384;2023-02-12T08:17:09;32.53;;;23.00;;
22634;SDS011;11484;50.858;4.384;2023-02-12T08:19:35;34.70;;;22.35;;
22634;SDS011;11484;50.858;4.384;2023-02-12T08:22:01;32.38;;;22.63;;
22634;SDS011;11484;50.858;4.384;2023-02-12T08:24:27;33.55;;;21.63;;
22634;SDS011;11484;50.858;4.384;2023-02-12T08:26:53;36.97;;;23.27;;
22634;SDS011;11484;50.858;4.384;2023-02-12T08:29:21;34.22;;;23.95;;
22634;SDS011;11484;50.858;4.384;2023-02-12T08:31:49;44.75;;;29.33;;
22634;SDS011;11484;50.858;4.384;2023-02-12T08:34:22;38.47;;;23.45;;
22634;SDS011;11484;50.858;4.384;2023-02-12T08:36:50;37.67;;;23.20;;
22634;SDS011;11484;50.858;4.384;2023-02-12T08:39:20;37.70;;;24.35;;
22634;SDS011;11484;50.858;4.384;2023-02-12T08:41:47;39.40;;;24.05;;
22634;SDS011;11484;50.858;4.384;2023-02-12T08:44:13;40.97;;;25.65;;
22634;SDS011;11484;50.858;4.384;2023-02-12T08:46:41;39.47;;;25.30;;
22634;SDS011;11484;50.858;4.384;2023-02-12T08:49:11;39.03;;;24.33;;
22634;SDS011;11484;50.858;4.384;2023-02-12T08:51:42;35.63;;;23.77;;
22634;SDS011;11484;50.858;4.384;2023-02-12T08:54:11;35.53;;;22.90;;
22634;SDS011;11484;50.858;4.384;2023-02-12T08:56:39;34.40;;;21.88;;
22634;SDS011;11484;50.858;4.384;2023-02-12T08:59:06;36.30;;;22.75;;
22634;SDS011;11484;50.858;4.384;2023-02-12T09:01:33;35.83;;;21.58;;
22634;SDS011;11484;50.858;4.384;2023-02-12T09:04:02;35.57;;;22.10;;
22634;SDS011;11484;50.858;4.384;2023-02-12T09:06:30;32.20;;;20.70;;
22634;SDS011;11484;50.858;4.384;2023-02-12T09:08:57;34.70;;;22.90;;
22634;SDS011;11484;50.858;4.384;2023-02-12T09:11:23;30.17;;;20.35;;
22634;SDS011;11484;50.858;4.384;2023-02-12T09:13:55;32.17;;;20.50;;
22634;SDS011;11484;50.858;4.384;2023-02-12T09:16:25;31.92;;;19.48;;
22634;SDS011;11484;50.858;4.384;2023-02-12T09:18:51;34.05;;;20.08;;
22634;SDS011;11484;50.858;4.384;2023-02-12T09:21:17;32.38;;;20.50;;
22634;SDS011;11484;50.858;4.384;2023-02-12T09:23:43;33.58;;;21.02;;
22634;SDS011;11484;50.858;4.384;2023-02-12T09:26:10;34.45;;;20.70;;
22634;SDS011;11484;50.858;4.384;2023-02-12T09:28:37;33.00;;;19.98;;
22634;SDS011;11484;50.858;4.384;2023-02-12T09:31:07;44.35;;;27.52;;
22634;SDS011;11484;50.858;4.384;2023-02-12T09:33:37;33.78;;;20.02;;
22634;SDS011;11484;50.858;4.384;2023-02-12T09:36:05;29.13;;;19.92;;
22634;SDS011;11484;50.858;4.384;2023-02-12T09:38:32;33.33;;;20.30;;
22634;SDS011;11484;50.858;4.384;2023-02-12T09:46:28;31.35;;;20.75;;
22634;SDS011;11484;50.858;4.384;2023-02-12T09:49:08;27.08;;;19.02;;
22634;SDS011;11484;50.858;4.384;2023-02-12T09:51:37;26.75;;;17.85;;
22634;SDS011;11484;50.858;4.384;2023-02-12T09:54:08;30.90;;;19.10;;
22634;SDS011;11484;50.858;4.384;2023-02-12T09:56:37;26.05;;;18.42;;
22634;SDS011;11484;50.858;4.384;2023-02-12T09:59:05;27.15;;;17.92;;
22634;SDS011;11484;50.858;4.384;2023-02-12T10:01:32;26.55;;;17.38;;
22634;SDS011;11484;50.858;4.384;2023-02-12T10:03:59;29.95;;;19.83;;
22634;SDS011;11484;50.858;4.384;2023-02-12T10:06:29;30.02;;;21.42;;
22634;SDS011;11484;50.858;4.384;2023-02-12T10:20:18;34.92;;;21.92;;
22634;SDS011;11484;50.858;4.384;2023-02-12T10:25:52;31.63;;;21.50;;
22634;SDS011;11484;50.858;4.384;2023-02-12T10:28:25;33.92;;;20.92;;
22634;SDS011;11484;50.858;4.384;2023-02-12T10:31:01;30.40;;;20.88;;
22634;SDS011;11484;50.858;4.384;2023-02-12T10:33:40;29.80;;;20.05;;
22634;SDS011;11484;50.858;4.384;2023-02-12T10:36:13;32.42;;;21.58;;
22634;SDS011;11484;50.858;4.384;2023-02-12T10:39:17;31.17;;;20.20;;
22634;SDS011;11484;50.858;4.384;2023-02-12T10:44:12;33.13;;;20.17;;
22634;SDS011;11484;50.858;4.384;2023-02-12T10:46:37;28.52;;;19.38;;
22634;SDS011;11484;50.858;4.384;2023-02-12T10:49:03;28.35;;;18.85;;
22634;SDS011;11484;50.858;4.384;2023-02-12T10:56:55;30.98;;;19.08;;
22634;SDS011;11484;50.858;4.384;2023-02-12T10:59:22;31.73;;;18.50;;
22634;SDS011;11484;50.858;4.384;2023-02-12T11:01:49;28.77;;;18.48;;
22634;SDS011;11484;50.858;4.384;2023-02-12T11:04:31;28.73;;;19.27;;
22634;SDS011;11484;50.858;4.384;2023-02-12T11:07:02;28.77;;;19.15;;
22634;SDS011;11484;50.858;4.384;2023-02-12T11:09:33;28.42;;;19.40;;
22634;SDS011;11484;50.858;4.384;2023-02-12T11:12:04;30.75;;;18.85;;
22634;SDS011;11484;50.858;4.384;2023-02-12T11:14:51;28.10;;;18.10;;
22634;SDS011;11484;50.858;4.384;2023-02-12T11:17:35;20.63;;;13.60;;
22634;SDS011;11484;50.858;4.384;2023-02-12T11:22:53;30.90;;;20.50;;
22634;SDS011;11484;50.858;4.384;2023-02-12T11:25:19;32.13;;;19.90;;
22634;SDS011;11484;50.858;4.384;2023-02-12T11:30:24;26.75;;;18.30;;
22634;SDS011;11484;50.858;4.384;2023-02-12T11:32:50;29.00;;;18.27;;
22634;SDS011;11484;50.858;4.384;2023-02-12T11:35:21;26.48;;;17.25;;
22634;SDS011;11484;50.858;4.384;2023-02-12T11:37:49;27.88;;;16.58;;
22634;SDS011;11484;50.858;4.384;2023-02-12T11:40:35;27.60;;;17.85;;
22634;SDS011;11484;50.858;4.384;2023-02-12T11:43:02;27.67;;;16.52;;
22634;SDS011;11484;50.858;4.384;2023-02-12T11:45:32;24.33;;;16.60;;
22634;SDS011;11484;50.858;4.384;2023-02-12T11:48:10;26.30;;;16.98;;
22634;SDS011;11484;50.858;4.384;2023-02-12T11:50:48;27.90;;;16.52;;
22634;SDS011;11484;50.858;4.384;2023-02-12T11:53:23;24.27;;;16.10;;
22634;SDS011;11484;50.858;4.384;2023-02-12T11:55:57;34.30;;;18.60;;
22634;SDS011;11484;50.858;4.384;2023-02-12T11:58:25;24.08;;;16.30;;
22634;SDS011;11484;50.858;4.384;2023-02-12T12:00:53;23.45;;;16.58;;
22634;SDS011;11484;50.858;4.384;2023-02-12T12:03:41;24.85;;;16.48;;
22634;SDS011;11484;50.858;4.384;2023-02-12T12:11:39;24.35;;;14.90;;
22634;SDS011;11484;50.858;4.384;2023-02-12T12:14:33;22.67;;;15.13;;
22634;SDS011;11484;50.858;4.384;2023-02-12T12:17:18;24.13;;;14.95;;
22634;SDS011;11484;50.858;4.384;2023-02-12T12:20:09;25.83;;;16.80;;
22634;SDS011;11484;50.858;4.384;2023-02-12T12:22:59;25.08;;;16.33;;
22634;SDS011;11484;50.858;4.384;2023-02-12T12:25:34;25.98;;;16.30;;
22634;SDS011;11484;50.858;4.384;2023-02-12T12:33:32;22.98;;;15.32;;
22634;SDS011;11484;50.858;4.384;2023-02-12T12:41:51;22.15;;;15.52;;
22634;SDS011;11484;50.858;4.384;2023-02-12T12:58:54;20.95;;;12.93;;
22634;SDS011;11484;50.858;4.384;2023-02-12T13:02:03;19.65;;;13.15;;
22634;SDS011;11484;50.858;4.384;2023-02-12T13:10:16;18.70;;;13.60;;
22634;SDS011;11484;50.858;4.384;2023-02-12T13:13:19;21.08;;;14.25;;
22634;SDS011;11484;50.858;4.384;2023-02-12T13:18:51;24.30;;;15.07;;
22634;SDS011;11484;50.858;4.384;2023-02-12T13:21:28;21.55;;;14.35;;
22634;SDS011;11484;50.858;4.384;2023-02-12T13:24:02;23.77;;;14.75;;
22634;SDS011;11484;50.858;4.384;2023-02-12T13:26:56;23.17;;;14.32;;
22634;SDS011;11484;50.858;4.384;2023-02-12T13:29:34;22.15;;;14.60;;
22634;SDS011;11484;50.858;4.384;2023-02-12T13:34:58;24.15;;;14.85;;
22634;SDS011;11484;50.858;4.384;2023-02-12T13:37:37;22.13;;;14.45;;
22634;SDS011;11484;50.858;4.384;2023-02-12T13:40:31;23.30;;;14.88;;
22634;SDS011;11484;50.858;4.384;2023-02-12T13:46:02;25.45;;;15.93;;
22634;SDS011;11484;50.858;4.384;2023-02-12T13:58:57;26.58;;;17.20;;
22634;SDS011;11484;50.858;4.384;2023-02-12T14:01:43;27.83;;;16.95;;
22634;SDS011;11484;50.858;4.384;2023-02-12T14:04:26;25.52;;;15.68;;
22634;SDS011;11484;50.858;4.384;2023-02-12T14:06:59;27.27;;;17.00;;
22634;SDS011;11484;50.858;4.384;2023-02-12T14:12:05;28.42;;;16.17;;
22634;SDS011;11484;50.858;4.384;2023-02-12T14:14:43;25.85;;;16.25;;
22634;SDS011;11484;50.858;4.384;2023-02-12T14:17:38;25.42;;;16.20;;
22634;SDS011;11484;50.858;4.384;2023-02-12T14:25:42;27.25;;;16.90;;
22634;SDS011;11484;50.858;4.384;2023-02-12T14:27:48;28.52;;;17.83;;
22634;SDS011;11484;50.858;4.384;2023-02-12T14:35:30;26.42;;;16.75;;
22634;SDS011;11484;50.858;4.384;2023-02-12T14:37:58;26.77;;;17.02;;
22634;SDS011;11484;50.858;4.384;2023-02-12T14:42:55;26.80;;;16.98;;
22634;SDS011;11484;50.858;4.384;2023-02-12T14:45:32;28.05;;;17.70;;
22634;SDS011;11484;50.858;4.384;2023-02-12T14:47:58;27.92;;;17.33;;
22634;SDS011;11484;50.858;4.384;2023-02-12T14:50:27;29.85;;;17.67;;
22634;SDS011;11484;50.858;4.384;2023-02-12T14:53:02;29.90;;;17.63;;
22634;SDS011;11484;50.858;4.384;2023-02-12T14:55:32;29.65;;;18.08;;
22634;SDS011;11484;50.858;4.384;2023-02-12T14:58:00;26.80;;;17.10;;
22634;SDS011;11484;50.858;4.384;2023-02-12T15:00:35;26.48;;;17.40;;
22634;SDS011;11484;50.858;4.384;2023-02-12T15:05:41;25.75;;;16.73;;
22634;SDS011;11484;50.858;4.384;2023-02-12T15:08:18;30.23;;;16.60;;
22634;SDS011;11484;50.858;4.384;2023-02-12T15:11:03;28.30;;;17.15;;
22634;SDS011;11484;50.858;4.384;2023-02-12T15:22:15;25.90;;;16.52;;
22634;SDS011;11484;50.858;4.384;2023-02-12T15:24:46;30.05;;;17.88;;
22634;SDS011;11484;50.858;4.384;2023-02-12T15:27:13;26.17;;;16.60;;
22634;SDS011;11484;50.858;4.384;2023-02-12T15:29:46;25.73;;;16.23;;
22634;SDS011;11484;50.858;4.384;2023-02-12T15:34:49;27.40;;;17.60;;
22634;SDS011;11484;50.858;4.384;2023-02-12T15:37:18;27.95;;;16.55;;
22634;SDS011;11484;50.858;4.384;2023-02-12T15:39:47;27.48;;;17.10;;
22634;SDS011;11484;50.858;4.384;2023-02-12T15:45:00;26.42;;;16.38;;
22634;SDS011;11484;50.858;4.384;2023-02-12T15:47:38;26.20;;;16.67;;
22634;SDS011;11484;50.858;4.384;2023-02-12T15:50:05;25.35;;;16.88;;
22634;SDS011;11484;50.858;4.384;2023-02-12T15:52:38;25.70;;;16.65;;
22634;SDS011;11484;50.858;4.384;2023-02-12T15:55:11;30.15;;;17.10;;
22634;SDS011;11484;50.858;4.384;2023-02-12T15:57:40;28.38;;;17.23;;
22634;SDS011;11484;50.858;4.384;2023-02-12T16:00:58;28.13;;;16.77;;
22634;SDS011;11484;50.858;4.384;2023-02-12T16:03:04;26.80;;;16.10;;
22634;SDS011;11484;50.858;4.384;2023-02-12T16:05:42;26.50;;;17.08;;
22634;SDS011;11484;50.858;4.384;2023-02-12T16:08:09;28.92;;;17.50;;
22634;SDS011;11484;50.858;4.384;2023-02-12T16:10:41;28.10;;;17.75;;
22634;SDS011;11484;50.858;4.384;2023-02-12T16:13:17;28.83;;;18.08;;
22634;SDS011;11484;50.858;4.384;2023-02-12T16:16:02;28.42;;;18.25;;
22634;SDS011;11484;50.858;4.384;2023-02-12T16:18:38;32.15;;;17.65;;
22634;SDS011;11484;50.858;4.384;2023-02-12T16:21:05;30.33;;;18.08;;
22634;SDS011;11484;50.858;4.384;2023-02-12T16:23:31;31.40;;;17.88;;
22634;SDS011;11484;50.858;4.384;2023-02-12T16:25:58;29.05;;;18.70;;
22634;SDS011;11484;50.858;4.384;2023-02-12T16:28:28;29.73;;;18.00;;
22634;SDS011;11484;50.858;4.384;2023-02-12T16:31:09;26.25;;;17.27;;
22634;SDS011;11484;50.858;4.384;2023-02-12T16:41:19;31.98;;;17.92;;
22634;SDS011;11484;50.858;4.384;2023-02-12T16:46:11;33.42;;;18.88;;
22634;SDS011;11484;50.858;4.384;2023-02-12T16:48:42;30.63;;;18.67;;
22634;SDS011;11484;50.858;4.384;2023-02-12T16:51:23;28.95;;;18.73;;
22634;SDS011;11484;50.858;4.384;2023-02-12T16:53:58;30.48;;;18.63;;
22634;SDS011;11484;50.858;4.384;2023-02-12T16:56:26;31.13;;;19.30;;
22634;SDS011;11484;50.858;4.384;2023-02-12T16:58:58;32.70;;;19.77;;
22634;SDS011;11484;50.858;4.384;2023-02-12T17:01:26;31.05;;;19.98;;
22634;SDS011;11484;50.858;4.384;2023-02-12T17:03:54;33.58;;;19.98;;
22634;SDS011;11484;50.858;4.384;2023-02-12T17:06:25;36.75;;;20.77;;
22634;SDS011;11484;50.858;4.384;2023-02-12T17:08:53;30.65;;;18.98;;
22634;SDS011;11484;50.858;4.384;2023-02-12T17:11:19;34.15;;;20.45;;
22634;SDS011;11484;50.858;4.384;2023-02-12T17:13:45;34.45;;;19.48;;
22634;SDS011;11484;50.858;4.384;2023-02-12T17:16:12;35.45;;;20.38;;
22634;SDS011;11484;50.858;4.384;2023-02-12T17:18:38;38.25;;;20.92;;
22634;SDS011;11484;50.858;4.384;2023-02-12T17:21:06;32.22;;;20.05;;
22634;SDS011;11484;50.858;4.384;2023-02-12T17:23:33;32.22;;;20.33;;
22634;SDS011;11484;50.858;4.384;2023-02-12T17:25:59;35.03;;;21.33;;
22634;SDS011;11484;50.858;4.384;2023-02-12T17:28:25;36.78;;;20.52;;
22634;SDS011;11484;50.858;4.384;2023-02-12T17:30:51;40.33;;;23.05;;
22634;SDS011;11484;50.858;4.384;2023-02-12T17:33:17;37.40;;;21.00;;
22634;SDS011;11484;50.858;4.384;2023-02-12T17:35:44;34.08;;;20.80;;
22634;SDS011;11484;50.858;4.384;2023-02-12T17:38:10;38.97;;;22.63;;